createdAt,value
2022-08-08T00:15:24.184Z,1020.25
2022-08-08T00:45:29.349Z,1020.28
2022-08-08T01:15:43.681Z,1020.09
2022-08-08T01:45:23.481Z,1020.18
2022-08-08T02:15:23.167Z,1020.23
2022-08-08T02:45:23.152Z,1020.14
2022-08-08T03:15:56.773Z,1020.21
2022-08-08T03:46:07.482Z,1020.4
2022-08-08T04:15:23.177Z,1020.63
2022-08-08T04:45:23.174Z,1020.86
2022-08-08T05:15:23.180Z,1021.12
2022-08-08T05:45:25.520Z,1021.41
2022-08-08T06:15:31.446Z,1021.49
2022-08-08T06:45:23.184Z,1021.65
2022-08-08T07:16:03.489Z,1021.68
2022-08-08T07:45:23.215Z,1021.77
2022-08-08T08:15:23.478Z,1021.77
2022-08-08T08:45:23.785Z,1021.73
2022-08-08T09:15:41.669Z,1021.84
2022-08-08T09:45:55.467Z,1021.86
2022-08-08T10:15:24.322Z,1021.67
2022-08-08T10:45:23.238Z,1021.48
2022-08-08T11:15:23.267Z,1021.33
2022-08-08T11:45:23.256Z,1021.15
2022-08-08T12:15:23.258Z,1021.08
2022-08-08T12:45:58.915Z,1020.8
2022-08-08T13:15:23.266Z,1020.8
2022-08-08T13:45:24.278Z,1020.45
2022-08-08T14:15:23.280Z,1020.33
2022-08-08T14:45:26.798Z,1020.21
2022-08-08T15:16:03.026Z,1020.28
2022-08-08T15:45:23.283Z,1020.13
2022-08-08T16:15:23.300Z,1020.13
2022-08-08T16:46:36.416Z,1020.09
2022-08-08T17:15:23.427Z,1020.05
2022-08-08T17:45:24.297Z,1020.19
2022-08-08T18:15:23.334Z,1020.49
2022-08-08T18:46:52.288Z,1020.71
2022-08-08T19:15:26.107Z,1021.11
2022-08-08T19:45:58.658Z,1021.51
2022-08-08T20:15:23.336Z,1021.75
2022-08-08T20:45:57.284Z,1021.96
2022-08-08T21:16:06.259Z,1022.08
2022-08-08T21:48:01.631Z,1022.21
2022-08-08T22:15:23.375Z,1022.24
2022-08-08T22:45:23.339Z,1022.23
2022-08-08T23:16:38.280Z,1022.35
2022-08-08T23:49:01.453Z,1022.38
